Time;durP1;ratioP1;P1;durP2;ratioP2;P2;SDS_P1;SDS_P2;PMS_P1;PMS_P2;Temp;Humidity;BMP_temperature;BMP_pressure;BME280_temperature;BME280_humidity;BME280_pressure;Samples;Min_cycle;Max_cycle;Signal;HPM_P1;HPM_P2
2023/07/14 00:00:27;;;;;;;;;8.00;7.00;;;;;23.59;41.86;101294.16;5053919;28;45404;-71
2023/07/14 00:02:53;;;;;;;;;4.00;4.00;;;;;23.57;41.86;101290.56;5054836;28;45499;-71
2023/07/14 00:05:22;;;;;;;;;6.33;2.00;;;;;23.54;41.96;101290.63;5055448;28;45349;-72
2023/07/14 00:07:49;;;;;;;;;14.00;6.67;;;;;23.47;41.87;101272.59;5054377;28;45369;-71
2023/07/14 00:10:21;;;;;;;;;7.00;4.00;;;;;23.56;41.95;101288.81;5055255;28;45419;-74
2023/07/14 00:12:49;;;;;;;;;4.00;3.00;;;;;23.57;41.79;101287.84;5054583;28;45445;-72
2023/07/14 00:15:16;;;;;;;;;5.00;3.00;;;;;23.57;41.90;101279.66;5054613;28;45411;-72
2023/07/14 00:17:42;;;;;;;;;5.00;4.33;;;;;23.40;41.85;101251.84;5054498;28;45298;-73
2023/07/14 00:20:22;;;;;;;;;9.67;6.33;;;;;23.55;41.66;101271.50;5054998;28;45367;-70
2023/07/14 00:22:48;;;;;;;;;8.00;7.00;;;;;23.57;41.88;101273.31;5048192;28;45692;-71
2023/07/14 00:25:13;;;;;;;;;6.00;6.00;;;;;23.45;41.81;101255.38;5055446;28;45438;-75
2023/07/14 00:27:39;;;;;;;;;7.67;6.00;;;;;23.36;41.91;101238.25;5056138;28;45857;-72
2023/07/14 00:30:34;;;;;;;;;10.00;7.67;;;;;23.44;41.94;101257.16;5055716;28;45460;-72
2023/07/14 00:32:59;;;;;;;;;9.33;8.00;;;;;23.50;41.80;101270.69;5031498;28;45269;-73
2023/07/14 00:35:27;;;;;;;;;12.33;12.33;;;;;23.46;42.20;101266.25;5054454;28;45589;-72
2023/07/14 00:37:55;;;;;;;;;11.67;9.67;;;;;23.48;42.25;101266.22;5054188;28;46657;-71
2023/07/14 00:40:26;;;;;;;;;17.00;11.33;;;;;23.40;42.20;101255.44;5052198;28;45390;-71
2023/07/14 00:42:57;;;;;;;;;12.33;12.33;;;;;23.15;41.97;101219.56;5037112;28;45928;-70
2023/07/14 00:45:26;;;;;;;;;11.33;11.33;;;;;23.42;42.21;101263.59;5054411;28;45437;-74
2023/07/14 00:47:57;;;;;;;;;12.67;12.00;;;;;23.36;42.33;101249.16;5037166;28;47000;-72
2023/07/14 00:50:31;;;;;;;;;13.00;11.33;;;;;23.42;42.18;101253.59;5055364;28;45381;-71
2023/07/14 00:52:59;;;;;;;;;16.00;15.00;;;;;23.33;42.26;101235.56;5054835;28;46315;-73
2023/07/14 00:55:36;;;;;;;;;10.33;10.33;;;;;23.42;42.37;101250.84;5050876;28;45380;-71
2023/07/14 00:58:02;;;;;;;;;16.00;12.00;;;;;23.22;42.16;101220.34;5033696;28;47993;-70
2023/07/14 01:00:30;;;;;;;;;13.00;12.00;;;;;23.32;42.54;101231.03;5051072;28;45527;-71
2023/07/14 01:02:58;;;;;;;;;13.00;13.00;;;;;23.41;42.54;101243.59;5053911;28;45523;-72
2023/07/14 01:05:26;;;;;;;;;26.00;19.67;;;;;23.37;42.32;101240.03;5054679;28;45369;-70
2023/07/14 01:07:53;;;;;;;;;24.33;16.33;;;;;23.22;42.11;101206.72;5053612;28;46176;-71
2023/07/14 01:10:24;;;;;;;;;21.00;19.67;;;;;23.35;42.42;101231.00;5054617;28;45749;-70
2023/07/14 01:12:55;;;;;;;;;17.33;15.33;;;;;23.32;42.67;101231.03;5053468;28;45568;-71
2023/07/14 01:15:21;;;;;;;;;18.33;15.00;;;;;23.33;43.05;101229.25;5053179;28;45571;-72
2023/07/14 01:17:49;;;;;;;;;12.67;12.67;;;;;23.26;42.72;101222.09;5053512;28;46596;-71
2023/07/14 01:20:15;;;;;;;;;12.67;11.33;;;;;23.26;42.79;101227.53;5035354;28;45568;-72
2023/07/14 01:22:46;;;;;;;;;14.00;12.33;;;;;23.28;42.81;101222.94;5053433;28;45517;-70
2023/07/14 01:25:35;;;;;;;;;12.33;8.67;;;;;23.28;42.94;101228.41;5054417;28;45274;-72
2023/07/14 01:28:03;;;;;;;;;9.00;9.00;;;;;23.23;42.75;101216.69;5047228;28;46217;-71
2023/07/14 01:30:29;;;;;;;;;9.33;8.67;;;;;23.17;42.71;101209.53;5052224;28;45316;-70
2023/07/14 01:32:54;;;;;;;;;9.00;9.00;;;;;23.01;42.96;101173.44;5047033;28;45476;-70
2023/07/14 01:35:27;;;;;;;;;14.67;11.67;;;;;23.02;43.01;101174.34;5034168;28;45417;-69
2023/07/14 01:37:53;;;;;;;;;49.50;38.50;;;;;22.94;42.97;101156.31;5053784;28;46372;-71
2023/07/14 01:40:18;;;;;;;;;51.50;37.00;;;;;23.15;42.91;101205.94;5048209;28;45419;-70
2023/07/14 01:42:49;;;;;;;;;39.25;32.25;;;;;22.99;43.41;101178.03;5053475;28;45391;-72
2023/07/14 01:45:17;;;;;;;;;24.75;22.00;;;;;23.12;42.73;101206.00;5050283;28;45294;-70
2023/07/14 01:47:45;;;;;;;;;19.33;14.00;;;;;22.84;43.10;101159.25;5046623;28;46058;-70
2023/07/14 01:50:25;;;;;;;;;15.67;14.00;;;;;23.11;43.29;101202.34;5053021;28;45409;-71
2023/07/14 01:52:56;;;;;;;;;14.67;7.67;;;;;23.10;43.47;101199.66;5056938;28;45491;-70
2023/07/14 01:55:31;;;;;;;;;8.00;8.00;;;;;23.07;43.41;101194.28;5052855;28;45626;-72
2023/07/14 01:57:58;;;;;;;;;8.00;6.67;;;;;23.02;43.50;101191.59;5056224;28;46978;-71
2023/07/14 02:00:24;;;;;;;;;5.33;5.00;;;;;22.93;43.58;101168.16;5055807;28;45383;-72
2023/07/14 02:02:50;;;;;;;;;4.67;4.67;;;;;23.02;43.88;101185.25;5057635;28;45427;-71
2023/07/14 02:05:36;;;;;;;;;8.33;8.33;;;;;22.99;43.77;101181.63;5058019;28;45410;-71
2023/07/14 02:08:04;;;;;;;;;8.00;8.00;;;;;22.87;43.68;101154.63;5057155;28;46450;-70
2023/07/14 02:10:31;;;;;;;;;13.00;10.33;;;;;22.97;43.62;101175.31;5057961;28;45357;-71
2023/07/14 02:12:56;;;;;;;;;14.00;14.00;;;;;22.83;43.48;101158.31;5057146;28;45385;-70
2023/07/14 02:15:32;;;;;;;;;21.00;17.00;;;;;22.93;43.70;101181.78;5056494;28;45421;-70
2023/07/14 02:17:59;;;;;;;;;21.67;17.00;;;;;22.87;43.62;101168.25;5055684;28;46224;-72
2023/07/14 02:20:35;;;;;;;;;29.33;20.00;;;;;22.95;43.76;101181.72;5056350;28;45440;-70
2023/07/14 02:23:04;;;;;;;;;40.00;26.75;;;;;22.91;43.76;101180.88;5056006;28;45420;-71
2023/07/14 02:25:37;;;;;;;;;27.50;24.25;;;;;22.87;43.73;101181.88;5056328;28;45443;-71
2023/07/14 02:28:03;;;;;;;;;30.75;24.75;;;;;22.88;43.79;101178.19;5032648;28;45943;-72
2023/07/14 02:30:31;;;;;;;;;17.00;15.00;;;;;22.86;43.83;101181.91;5055470;28;45392;-70
2023/07/14 02:33:04;;;;;;;;;15.00;14.67;;;;;22.83;43.95;101182.84;5020889;28;45669;-72
2023/07/14 02:35:33;;;;;;;;;20.00;15.67;;;;;22.82;44.08;101183.78;5037711;28;45501;-71
2023/07/14 02:38:03;;;;;;;;;11.67;11.67;;;;;22.73;43.97;101168.47;5056741;28;45404;-70
2023/07/14 02:40:30;;;;;;;;;10.00;10.00;;;;;22.76;44.10;101170.25;5051298;28;45425;-72
2023/07/14 02:42:56;;;;;;;;;13.33;10.67;;;;;22.80;44.24;101177.44;5056168;28;45800;-71
2023/07/14 02:45:23;;;;;;;;;13.00;9.00;;;;;22.71;44.07;101159.44;5057345;28;45307;-71
2023/07/14 02:47:52;;;;;;;;;12.00;12.00;;;;;22.76;44.18;101175.72;5053585;28;46623;-71
2023/07/14 02:50:18;;;;;;;;;13.33;10.00;;;;;22.73;44.19;101173.91;5036026;28;45414;-72
2023/07/14 02:52:43;;;;;;;;;10.00;10.00;;;;;22.69;44.20;101168.59;5056109;28;47801;-71
2023/07/14 02:55:09;;;;;;;;;16.67;13.67;;;;;22.68;44.39;101177.66;5038069;28;45525;-70
2023/07/14 02:57:34;;;;;;;;;15.00;12.00;;;;;22.68;44.49;101173.09;5050847;28;45539;-73
2023/07/14 03:00:00;;;;;;;;;11.00;9.33;;;;;22.68;44.57;101167.66;5055012;28;45519;-70
2023/07/14 03:02:25;;;;;;;;;8.67;6.33;;;;;22.67;44.67;101171.31;5054378;28;45463;-70
2023/07/14 03:04:50;;;;;;;;;7.67;7.67;;;;;22.66;44.66;101176.81;5051389;28;45389;-72
2023/07/14 03:07:16;;;;;;;;;9.67;8.67;;;;;22.55;44.56;101149.72;5053614;28;45300;-71
2023/07/14 03:09:41;;;;;;;;;9.00;8.00;;;;;22.63;44.61;101165.00;5056380;28;45523;-71
2023/07/14 03:12:08;;;;;;;;;11.33;9.00;;;;;22.58;44.80;101149.69;5056069;28;45480;-71
2023/07/14 03:14:33;;;;;;;;;10.00;8.67;;;;;22.58;44.88;101145.13;5055861;28;45691;-72
2023/07/14 03:16:58;;;;;;;;;14.67;12.00;;;;;22.44;44.63;101126.31;5055420;28;46296;-71
2023/07/14 03:19:25;;;;;;;;;17.00;12.33;;;;;22.43;44.63;101112.72;5056171;28;45557;-71
2023/07/14 03:21:50;;;;;;;;;16.33;11.67;;;;;22.61;44.78;101145.06;5054366;28;45445;-71
2023/07/14 03:24:15;;;;;;;;;7.33;7.33;;;;;22.52;44.82;101128.91;5056366;28;45498;-71
2023/07/14 03:26:41;;;;;;;;;9.33;8.00;;;;;22.50;45.06;101128.03;5060045;28;46325;-71
2023/07/14 03:29:06;;;;;;;;;9.00;7.33;;;;;22.54;44.98;101134.34;5058766;28;45454;-70
2023/07/14 03:31:32;;;;;;;;;14.67;8.00;;;;;22.54;44.94;101137.06;5057538;28;46223;-70
2023/07/14 03:33:57;;;;;;;;;11.67;8.33;;;;;22.45;44.86;101128.13;5059984;28;45647;-70
2023/07/14 03:36:23;;;;;;;;;6.67;5.00;;;;;22.55;45.01;101136.13;5037351;28;56015;-72
2023/07/14 03:39:25;;;;;;;;;8.00;7.00;;;;;22.58;44.80;101128.78;5036046;28;45377;-72
2023/07/14 03:41:56;;;;;;;;;6.33;6.33;;;;;22.58;45.04;101127.91;5054034;28;45539;-72
2023/07/14 03:44:22;;;;;;;;;7.33;6.33;;;;;22.51;44.78;101112.59;5049788;28;45275;-69
2023/07/14 03:46:48;;;;;;;;;8.33;6.33;;;;;22.62;44.71;101125.09;5054799;28;46615;-70
2023/07/14 03:49:14;;;;;;;;;8.00;8.00;;;;;22.61;44.75;101125.13;5054939;28;45400;-70
2023/07/14 03:51:40;;;;;;;;;7.00;7.00;;;;;22.60;44.81;101123.31;5055166;28;45502;-72
2023/07/14 03:54:06;;;;;;;;;6.33;6.00;;;;;22.59;44.99;101114.25;5054518;28;45382;-71
2023/07/14 03:56:31;;;;;;;;;9.67;7.00;;;;;22.60;44.81;101106.97;5054911;28;45544;-71
2023/07/14 03:58:56;;;;;;;;;10.33;6.00;;;;;22.58;44.84;101100.66;5054387;28;54574;-71
2023/07/14 04:01:22;;;;;;;;;8.67;6.00;;;;;22.56;45.00;101097.97;5054641;28;45459;-70
2023/07/14 04:03:48;;;;;;;;;8.00;6.00;;;;;22.57;44.75;101098.84;5054313;28;45547;-70
2023/07/14 04:06:14;;;;;;;;;6.33;5.33;;;;;22.56;44.90;101107.97;5054545;28;46463;-70
2023/07/14 04:08:43;;;;;;;;;5.00;5.00;;;;;22.56;44.64;101100.69;5054921;28;45429;-70
2023/07/14 04:11:09;;;;;;;;;6.67;5.00;;;;;22.58;44.68;101107.00;5054044;28;45539;-69
2023/07/14 04:13:35;;;;;;;;;5.33;4.00;;;;;22.61;44.48;101106.94;5054932;28;45408;-70
2023/07/14 04:16:03;;;;;;;;;8.67;7.00;;;;;22.69;44.86;101112.28;5036056;28;46723;-71
2023/07/14 04:18:28;;;;;;;;;5.00;4.00;;;;;22.58;44.49;101087.06;5054990;28;45507;-71
2023/07/14 04:20:54;;;;;;;;;8.33;6.00;;;;;22.70;44.52;101096.81;5054961;28;45341;-70
2023/07/14 04:23:19;;;;;;;;;6.67;5.00;;;;;22.74;44.66;101095.84;5036742;28;45534;-71
2023/07/14 04:25:44;;;;;;;;;6.00;6.00;;;;;22.71;44.39;101094.06;5054531;28;52645;-72
2023/07/14 04:28:10;;;;;;;;;8.67;5.00;;;;;22.72;44.17;101092.22;5035671;28;45364;-71
2023/07/14 04:30:36;;;;;;;;;8.00;7.00;;;;;22.66;44.35;101085.09;5054351;28;45310;-71
2023/07/14 04:33:03;;;;;;;;;7.67;5.00;;;;;22.77;44.28;101107.59;5054994;28;45416;-70
2023/07/14 04:35:29;;;;;;;;;7.33;7.33;;;;;22.77;44.22;101104.84;5054526;28;45483;-72
2023/07/14 04:37:55;;;;;;;;;6.00;6.00;;;;;22.79;44.43;101105.72;5054741;28;45487;-71
2023/07/14 04:40:20;;;;;;;;;6.67;5.67;;;;;22.77;44.28;101098.53;5054336;28;45765;-71
2023/07/14 04:42:47;;;;;;;;;4.33;4.33;;;;;22.79;43.99;101088.47;5054816;28;45774;-71
2023/07/14 04:45:12;;;;;;;;;7.33;6.00;;;;;22.81;44.15;101089.34;5035208;28;47193;-73
2023/07/14 04:47:37;;;;;;;;;10.67;6.67;;;;;22.77;44.23;101083.06;5036582;28;45442;-72
2023/07/14 04:50:03;;;;;;;;;7.00;6.00;;;;;22.80;44.15;101087.53;5047874;28;56554;-72
2023/07/14 04:52:29;;;;;;;;;6.67;6.00;;;;;22.76;44.26;101078.53;5054956;28;45445;-72
2023/07/14 04:54:54;;;;;;;;;7.33;7.33;;;;;22.81;44.09;101081.19;5054382;28;46671;-70
2023/07/14 04:57:19;;;;;;;;;5.00;5.00;;;;;22.81;44.07;101086.63;5054265;28;45447;-72
2023/07/14 04:59:45;;;;;;;;;6.00;6.00;;;;;22.72;44.23;101071.34;5053840;28;46633;-70
2023/07/14 05:02:10;;;;;;;;;8.00;8.00;;;;;22.70;44.30;101064.13;5054283;28;45608;-71
2023/07/14 05:04:40;;;;;;;;;7.33;7.33;;;;;22.66;44.57;101038.78;5052929;28;61061;-70
2023/07/14 05:07:05;;;;;;;;;7.67;7.00;;;;;22.60;44.72;101039.81;5054510;28;45357;-72
2023/07/14 05:09:30;;;;;;;;;10.33;8.00;;;;;22.57;44.63;101034.41;5054665;28;45511;-70
2023/07/14 05:11:56;;;;;;;;;11.00;7.00;;;;;22.63;44.99;101027.94;5054845;28;45631;-72
2023/07/14 05:14:21;;;;;;;;;7.00;5.00;;;;;22.64;44.71;101035.19;5053924;28;45539;-71
2023/07/14 05:16:46;;;;;;;;;10.33;6.00;;;;;22.65;45.59;101023.34;5035567;28;45718;-73
2023/07/14 05:19:12;;;;;;;;;6.00;4.00;;;;;22.58;45.94;101005.34;5053556;28;45512;-71
2023/07/14 05:21:37;;;;;;;;;4.33;4.33;;;;;22.58;46.31;101008.97;5055044;28;46127;-70
2023/07/14 05:24:02;;;;;;;;;10.67;6.00;;;;;22.64;46.54;101022.47;5055764;28;57549;-71
2023/07/14 05:26:28;;;;;;;;;3.67;3.00;;;;;22.61;46.38;100998.00;5038317;28;45496;-72
2023/07/14 05:28:54;;;;;;;;;4.33;4.33;;;;;22.56;45.84;100971.81;5036667;28;45496;-71
2023/07/14 05:31:19;;;;;;;;;3.33;3.33;;;;;22.55;45.86;100981.78;5057788;28;45758;-70
2023/07/14 05:33:45;;;;;;;;;5.33;4.67;;;;;22.55;45.80;100994.50;5053256;28;46015;-72
2023/07/14 05:36:10;;;;;;;;;3.00;3.00;;;;;22.52;45.79;101002.75;5055564;28;45428;-72
2023/07/14 05:38:36;;;;;;;;;5.00;4.00;;;;;22.45;45.65;101005.59;5038678;28;49980;-70
2023/07/14 05:41:04;;;;;;;;;1.00;1.00;;;;;22.34;45.65;100995.81;5058156;28;45636;-70
2023/07/14 05:43:29;;;;;;;;;3.33;3.00;;;;;22.33;45.53;100992.19;5057084;28;46172;-71
2023/07/14 05:45:55;;;;;;;;;5.00;5.00;;;;;22.04;45.33;100950.06;5056944;28;45411;-71
2023/07/14 05:48:20;;;;;;;;;5.33;4.33;;;;;22.34;45.27;101014.88;5038637;28;45441;-71
2023/07/14 05:50:46;;;;;;;;;5.00;4.00;;;;;22.26;44.93;100996.81;5055582;28;45457;-72
2023/07/14 05:53:14;;;;;;;;;6.67;4.67;;;;;22.22;45.18;101006.00;5055642;28;46340;-72
2023/07/14 05:55:39;;;;;;;;;5.00;3.00;;;;;22.12;45.30;101000.72;5056975;28;45354;-72
2023/07/14 05:58:06;;;;;;;;;3.67;3.67;;;;;22.16;45.43;101000.66;5056539;28;45283;-71
2023/07/14 06:00:38;;;;;;;;;5.33;5.33;;;;;22.09;45.20;100985.31;5038876;28;45465;-70
2023/07/14 06:03:04;;;;;;;;;9.00;7.00;;;;;22.23;45.25;100994.16;5056509;28;45574;-72
2023/07/14 06:05:30;;;;;;;;;20.67;18.33;;;;;22.34;45.13;100991.28;5056612;28;45395;-69
2023/07/14 06:07:55;;;;;;;;;7.00;6.00;;;;;22.35;44.73;100976.72;5055798;28;45325;-74
2023/07/14 06:10:21;;;;;;;;;7.00;4.00;;;;;22.46;44.56;100971.09;5054466;28;45504;-72
2023/07/14 06:12:46;;;;;;;;;17.67;13.67;;;;;22.40;44.35;100955.75;5053485;28;47545;-72
2023/07/14 06:15:12;;;;;;;;;6.00;3.00;;;;;22.46;43.95;100984.72;5056196;28;45504;-70
2023/07/14 06:17:38;;;;;;;;;4.67;2.67;;;;;22.52;44.19;100990.03;5056985;28;45424;-72
2023/07/14 06:20:03;;;;;;;;;3.67;3.00;;;;;22.48;44.24;100987.41;5053128;28;45456;-74
2023/07/14 06:22:29;;;;;;;;;5.00;4.33;;;;;22.52;44.22;100984.59;5037623;28;46160;-72
2023/07/14 06:24:55;;;;;;;;;4.00;4.00;;;;;22.58;44.17;101002.63;5055419;28;45290;-71
2023/07/14 06:27:22;;;;;;;;;6.67;5.33;;;;;22.58;43.81;100992.63;5056602;28;45289;-71
2023/07/14 06:29:48;;;;;;;;;4.00;4.00;;;;;22.59;43.67;100983.53;5038349;28;45449;-71
2023/07/14 06:32:15;;;;;;;;;4.67;2.67;;;;;22.55;43.68;100989.97;5056074;28;45737;-69
2023/07/14 06:34:42;;;;;;;;;2.67;2.67;;;;;22.67;43.79;100983.41;5056843;28;45589;-70
2023/07/14 06:37:08;;;;;;;;;5.00;4.00;;;;;22.74;43.42;100968.72;5037922;28;45519;-73
2023/07/14 06:39:33;;;;;;;;;3.67;3.67;;;;;22.75;42.84;100945.09;5056811;28;45551;-71
2023/07/14 06:41:58;;;;;;;;;4.00;3.00;;;;;22.80;43.08;100959.50;5055459;28;46089;-71
2023/07/14 06:44:24;;;;;;;;;5.33;5.33;;;;;22.84;42.84;100963.97;5056462;28;45288;-69
2023/07/14 06:46:49;;;;;;;;;4.00;4.00;;;;;22.89;42.91;100962.03;5056569;28;45585;-70
2023/07/14 06:49:15;;;;;;;;;5.67;4.33;;;;;22.86;42.45;100958.50;5057209;28;45392;-70
2023/07/14 06:51:40;;;;;;;;;5.67;4.67;;;;;22.80;42.55;100965.88;5037950;28;48315;-71
2023/07/14 06:54:06;;;;;;;;;7.33;4.33;;;;;22.74;42.54;100956.94;5056324;28;45297;-71
2023/07/14 06:56:31;;;;;;;;;6.00;5.00;;;;;22.74;42.84;100965.09;5037195;28;45319;-72
2023/07/14 06:58:57;;;;;;;;;6.67;6.00;;;;;22.79;43.16;100963.19;5056471;28;45472;-70
2023/07/14 07:01:22;;;;;;;;;5.00;5.00;;;;;22.84;42.79;100954.91;5055367;28;46848;-69
2023/07/14 07:03:48;;;;;;;;;8.00;6.00;;;;;22.75;42.88;100943.28;5056345;28;45484;-71
2023/07/14 07:06:17;;;;;;;;;4.33;4.33;;;;;22.85;42.66;100956.69;5056481;28;45643;-70
2023/07/14 07:08:42;;;;;;;;;6.33;6.33;;;;;22.75;42.59;100928.75;5038479;28;45498;-73
2023/07/14 07:11:12;;;;;;;;;7.00;5.00;;;;;22.87;42.72;100941.19;5037198;28;47544;-69
2023/07/14 07:13:38;;;;;;;;;6.00;3.67;;;;;22.90;42.58;100938.41;5056409;28;45606;-71
2023/07/14 07:16:03;;;;;;;;;5.67;5.00;;;;;22.93;42.79;100928.38;5059494;28;45729;-69
2023/07/14 07:18:29;;;;;;;;;6.00;5.00;;;;;22.99;42.12;100935.50;5057726;28;45635;-72
2023/07/14 07:20:55;;;;;;;;;6.33;5.33;;;;;22.98;42.22;100926.44;5055948;28;46067;-71
2023/07/14 07:23:20;;;;;;;;;5.00;5.00;;;;;22.88;42.35;100908.47;5055692;28;45528;-71
2023/07/14 07:25:51;;;;;;;;;9.33;7.00;;;;;23.09;42.09;100925.31;5055622;28;45607;-70
2023/07/14 07:28:18;;;;;;;;;5.33;4.33;;;;;23.09;41.94;100915.31;5056332;28;45603;-72
2023/07/14 07:30:44;;;;;;;;;4.33;4.33;;;;;23.19;41.65;100913.28;5035730;28;45544;-72
2023/07/14 07:33:09;;;;;;;;;6.33;4.00;;;;;22.99;41.83;100862.81;5056543;28;45408;-75
2023/07/14 07:35:40;;;;;;;;;8.33;6.00;;;;;23.37;41.58;100910.09;5056164;28;45410;-71
2023/07/14 07:38:07;;;;;;;;;8.00;4.67;;;;;23.43;41.02;100916.34;5050420;28;45553;-74
2023/07/14 07:40:33;;;;;;;;;7.33;5.00;;;;;23.48;40.85;100917.16;5049106;28;45716;-69
2023/07/14 07:43:00;;;;;;;;;8.67;6.67;;;;;23.49;41.19;100916.19;5055676;28;45466;-72
2023/07/14 07:45:25;;;;;;;;;7.67;5.33;;;;;23.56;41.16;100917.84;5055301;28;45432;-71
2023/07/14 07:47:51;;;;;;;;;8.67;5.33;;;;;23.63;40.81;100924.06;5054459;28;45424;-71
2023/07/14 07:50:17;;;;;;;;;9.00;5.00;;;;;23.65;40.75;100919.44;5055533;28;45239;-72
2023/07/14 07:52:45;;;;;;;;;7.00;5.33;;;;;23.46;40.59;100884.47;5046479;22;46422;-65
2023/07/14 07:55:10;;;;;;;;;7.00;5.00;;;;;23.60;40.63;100902.31;5035505;28;45619;-64
2023/07/14 07:57:36;;;;;;;;;4.67;4.00;;;;;23.61;40.56;100899.53;5035210;28;45506;-68
2023/07/14 08:00:02;;;;;;;;;5.00;5.00;;;;;23.67;40.18;100899.38;5035155;28;45451;-60
2023/07/14 08:02:27;;;;;;;;;5.33;5.00;;;;;23.60;40.61;100869.56;5017064;28;45453;-58
2023/07/14 08:04:53;;;;;;;;;5.00;4.00;;;;;23.78;40.08;100881.84;5031754;28;45898;-58
2023/07/14 08:07:18;;;;;;;;;5.33;5.33;;;;;23.90;40.28;100871.50;5035054;28;45599;-62
2023/07/14 08:09:44;;;;;;;;;4.67;4.67;;;;;23.95;39.90;100865.94;5035525;28;45407;-70
2023/07/14 08:12:09;;;;;;;;;5.00;5.00;;;;;23.95;39.44;100868.66;5035058;28;45274;-63
2023/07/14 08:14:57;;;;;;;;;4.00;4.00;;;;;24.04;39.43;100867.50;5017084;28;45765;-61
2023/07/14 08:17:24;;;;;;;;;4.33;4.00;;;;;23.99;39.24;100853.09;5036231;28;45978;-65
2023/07/14 08:19:50;;;;;;;;;4.67;4.67;;;;;24.13;39.52;100867.25;5036648;28;45458;-60
2023/07/14 08:22:16;;;;;;;;;7.67;7.67;;;;;24.19;39.60;100869.81;5035266;28;45594;-59
2023/07/14 08:24:41;;;;;;;;;6.33;6.33;;;;;24.28;39.60;100868.66;5020414;28;45650;-66
2023/07/14 08:27:07;;;;;;;;;6.00;5.00;;;;;24.17;39.22;100844.41;5019375;28;45436;-59
2023/07/14 08:29:32;;;;;;;;;4.00;4.00;;;;;24.47;38.92;100875.38;5035083;28;46182;-65
2023/07/14 08:31:57;;;;;;;;;6.33;5.67;;;;;24.55;38.47;100869.75;5035556;28;46157;-59
2023/07/14 08:34:26;;;;;;;;;7.00;7.00;;;;;24.69;38.47;100860.22;5036684;28;45396;-59
2023/07/14 08:36:52;;;;;;;;;7.33;7.00;;;;;24.76;38.29;100856.34;5017085;28;45582;-59
2023/07/14 08:39:17;;;;;;;;;3.67;3.67;;;;;24.79;37.66;100851.69;5017757;28;45525;-60
2023/07/14 08:41:46;;;;;;;;;8.33;7.00;;;;;24.82;38.16;100840.66;5035901;28;45728;-61
2023/07/14 08:44:20;;;;;;;;;5.67;4.00;;;;;24.89;38.04;100848.69;5036221;28;45597;-58
2023/07/14 08:46:46;;;;;;;;;4.67;4.67;;;;;24.86;37.70;100848.78;5037245;28;45394;-62
2023/07/14 08:49:17;;;;;;;;;5.00;4.67;;;;;24.76;37.67;100837.22;5037687;28;45536;-60
2023/07/14 08:51:45;;;;;;;;;7.67;7.67;;;;;24.80;37.65;100825.28;5035432;28;45679;-70
2023/07/14 08:54:24;;;;;;;;;7.33;5.67;;;;;24.80;37.69;100826.16;5034463;28;45637;-61
2023/07/14 08:56:52;;;;;;;;;11.33;10.00;;;;;24.84;37.34;100825.09;5034018;28;45578;-68
2023/07/14 08:59:39;;;;;;;;;10.00;8.00;;;;;24.91;37.11;100814.88;5034139;28;45379;-68
2023/07/14 09:02:19;;;;;;;;;6.67;5.00;;;;;25.01;37.22;100804.53;5033893;28;45489;-61
2023/07/14 09:04:55;;;;;;;;;7.67;5.00;;;;;25.18;36.12;100806.72;5033567;28;45741;-61
2023/07/14 09:07:21;;;;;;;;;5.33;4.00;;;;;25.31;36.25;100794.47;5016268;28;45364;-62
2023/07/14 09:09:47;;;;;;;;;7.00;3.67;;;;;25.40;34.94;100797.84;5032566;28;45472;-60
2023/07/14 09:12:36;;;;;;;;;5.00;5.00;;;;;25.44;34.29;100791.28;5015673;28;45516;-67
2023/07/14 09:15:11;;;;;;;;;4.67;4.67;;;;;25.55;33.87;100787.22;5033681;28;45384;-70
2023/07/14 09:18:01;;;;;;;;;8.33;3.00;;;;;25.66;34.11;100786.84;5015740;28;45486;-64
2023/07/14 09:20:40;;;;;;;;;5.00;3.33;;;;;25.79;33.74;100787.31;5033470;28;45505;-61
2023/07/14 09:23:13;;;;;;;;;9.00;8.00;;;;;25.86;32.98;100780.66;5033330;28;45347;-61
2023/07/14 09:25:50;;;;;;;;;8.67;4.33;;;;;25.87;33.28;100776.97;5032778;28;45481;-60
2023/07/14 09:28:40;;;;;;;;;5.00;5.00;;;;;25.87;32.36;100774.25;5033855;28;45457;-61
2023/07/14 09:31:24;;;;;;;;;6.67;5.00;;;;;25.89;32.88;100760.50;5029558;28;46534;-64
2023/07/14 09:33:56;;;;;;;;;3.33;3.33;;;;;26.06;32.90;100765.38;5015937;28;45595;-63
2023/07/14 09:36:22;;;;;;;;;5.00;4.00;;;;;26.17;33.04;100759.47;5033931;28;45536;-59
2023/07/14 09:38:54;;;;;;;;;6.33;4.67;;;;;26.25;33.07;100743.63;5034289;28;45382;-67
2023/07/14 09:41:24;;;;;;;;;6.00;3.67;;;;;26.18;32.21;100718.34;5014326;28;47706;-65
2023/07/14 09:43:49;;;;;;;;;8.00;4.00;;;;;26.42;32.38;100743.88;5032773;28;45387;-59
2023/07/14 09:46:17;;;;;;;;;4.33;3.00;;;;;26.47;31.97;100741.84;5032860;28;45336;-64
2023/07/14 09:48:49;;;;;;;;;5.00;4.67;;;;;26.49;31.50;100752.75;5033551;28;45273;-66
2023/07/14 09:51:23;;;;;;;;;4.00;1.00;;;;;26.45;31.57;100720.97;5033394;28;46326;-62
2023/07/14 09:54:07;;;;;;;;;3.00;3.00;;;;;26.53;31.62;100735.25;5032927;28;45378;-59
2023/07/14 09:56:42;;;;;;;;;5.33;3.00;;;;;26.61;31.61;100729.44;5032619;28;45561;-58
2023/07/14 09:59:22;;;;;;;;;4.00;4.00;;;;;26.63;31.51;100725.72;5032971;28;45610;-59
2023/07/14 10:02:00;;;;;;;;;4.00;4.00;;;;;26.74;31.54;100718.91;5014573;28;47292;-59
2023/07/14 10:04:30;;;;;;;;;6.33;5.00;;;;;26.80;31.06;100708.56;5030109;28;45588;-59
2023/07/14 10:07:24;;;;;;;;;3.00;2.67;;;;;26.90;30.71;100706.34;5027135;28;45456;-60
2023/07/14 10:09:59;;;;;;;;;2.67;2.67;;;;;26.73;30.71;100670.50;5030762;28;45524;-60
2023/07/14 10:12:34;;;;;;;;;4.00;4.00;;;;;26.94;30.74;100696.13;5033478;28;46316;-59
2023/07/14 10:15:00;;;;;;;;;1.00;1.00;;;;;26.90;30.36;100687.16;5031251;28;45363;-67
2023/07/14 10:17:27;;;;;;;;;4.67;4.67;;;;;26.94;30.25;100693.38;5035752;28;45576;-63
2023/07/14 10:19:56;;;;;;;;;4.00;2.67;;;;;26.90;30.35;100678.91;5036348;28;45688;-62
2023/07/14 10:22:31;;;;;;;;;6.00;3.00;;;;;26.64;30.28;100619.72;5036104;28;46521;-61
2023/07/14 10:24:58;;;;;;;;;3.00;3.00;;;;;27.10;30.02;100685.41;5030193;28;45328;-64
2023/07/14 10:27:27;;;;;;;;;3.00;3.00;;;;;27.10;29.47;100678.06;5036164;28;45473;-59
2023/07/14 10:30:23;;;;;;;;;4.33;4.00;;;;;27.18;29.73;100672.25;5028757;28;46344;-62
2023/07/14 10:32:55;;;;;;;;;4.00;4.00;;;;;27.12;29.47;100658.78;5033099;28;46900;-60
2023/07/14 10:35:28;;;;;;;;;5.67;4.33;;;;;27.14;29.59;100662.34;5035663;28;45326;-60
2023/07/14 10:38:02;;;;;;;;;3.67;3.67;;;;;27.21;29.95;100677.59;5036209;28;45883;-59
2023/07/14 10:40:33;;;;;;;;;4.33;4.33;;;;;27.29;30.11;100664.47;5036078;28;45326;-59
2023/07/14 10:43:04;;;;;;;;;4.00;4.00;;;;;27.39;30.16;100662.19;5035713;28;47068;-59
2023/07/14 10:45:34;;;;;;;;;4.67;3.67;;;;;27.50;30.01;100651.59;5035592;28;45430;-60
2023/07/14 10:48:24;;;;;;;;;4.33;4.33;;;;;27.58;29.92;100641.16;5034227;28;45461;-59
2023/07/14 10:50:58;;;;;;;;;5.00;4.00;;;;;27.44;29.76;100598.84;5032851;28;45303;-60
2023/07/14 10:53:35;;;;;;;;;3.67;3.67;;;;;27.42;29.55;100584.31;5035346;28;45974;-60
2023/07/14 10:56:06;;;;;;;;;6.33;3.67;;;;;27.68;29.62;100621.53;5035761;28;45481;-59
2023/07/14 10:58:46;;;;;;;;;3.00;3.00;;;;;27.76;29.52;100611.97;5036181;28;45481;-60
2023/07/14 11:01:18;;;;;;;;;5.33;4.67;;;;;27.77;29.44;100594.53;5035467;28;45518;-61
2023/07/14 11:04:13;;;;;;;;;3.00;3.00;;;;;27.83;29.36;100607.06;5035005;28;45535;-61
2023/07/14 11:06:44;;;;;;;;;4.67;3.00;;;;;27.74;29.56;100611.16;5033641;28;45489;-61
2023/07/14 11:09:14;;;;;;;;;5.00;4.00;;;;;27.71;29.86;100594.81;5018131;28;45589;-59
2023/07/14 11:11:58;;;;;;;;;3.33;3.33;;;;;27.72;29.87;100587.50;5035679;28;45504;-61
2023/07/14 11:14:35;;;;;;;;;4.33;2.67;;;;;27.71;29.86;100582.97;5034882;28;45527;-59
2023/07/14 11:17:01;;;;;;;;;3.00;3.00;;;;;27.69;29.51;100594.00;5035926;28;45850;-59
2023/07/14 11:19:48;;;;;;;;;5.00;5.00;;;;;27.77;29.44;100583.56;5034307;28;45370;-60
2023/07/14 11:22:39;;;;;;;;;4.00;4.00;;;;;27.88;29.42;100568.41;5032497;28;45318;-61
2023/07/14 11:25:24;;;;;;;;;4.00;4.00;;;;;27.99;29.33;100556.94;5010448;28;47632;-60
2023/07/14 11:28:14;;;;;;;;;5.33;4.33;;;;;28.11;29.23;100553.59;5035225;28;45501;-59
2023/07/14 11:30:43;;;;;;;;;6.00;3.67;;;;;28.16;28.96;100561.59;5034972;28;45403;-60